createdAt,value
2017-07-28T00:00:07.927Z,19.66
2017-07-28T00:02:35.927Z,19.66
2017-07-28T00:05:03.608Z,19.67
2017-07-28T00:07:31.330Z,19.67
2017-07-28T00:09:59.138Z,19.68
2017-07-28T00:12:26.869Z,19.66
2017-07-28T00:14:54.530Z,19.68
2017-07-28T00:17:22.497Z,19.67
2017-07-28T00:19:50.405Z,19.65
2017-07-28T00:22:18.111Z,19.69
2017-07-28T00:24:46.097Z,19.62
2017-07-28T00:27:13.897Z,19.60
2017-07-28T00:29:41.831Z,19.56
2017-07-28T00:32:09.627Z,19.61
2017-07-28T00:34:37.605Z,19.59
2017-07-28T00:37:05.261Z,19.53
2017-07-28T00:39:33.302Z,19.62
2017-07-28T00:42:01.005Z,19.61
2017-07-28T00:44:28.838Z,19.60
2017-07-28T00:46:56.581Z,19.54
2017-07-28T00:49:24.571Z,19.50
2017-07-28T00:51:52.310Z,19.52
2017-07-28T00:54:20.182Z,19.52
2017-07-28T00:56:47.990Z,19.57
2017-07-28T00:59:15.715Z,19.53
2017-07-28T01:01:43.706Z,19.49
2017-07-28T01:04:11.650Z,19.51
2017-07-28T01:06:39.765Z,19.46
2017-07-28T01:09:07.744Z,19.40
2017-07-28T01:11:35.475Z,19.41
2017-07-28T01:14:03.193Z,19.39
2017-07-28T01:16:30.982Z,19.38
2017-07-28T01:18:58.808Z,19.41
2017-07-28T01:21:26.648Z,19.39
2017-07-28T01:23:54.383Z,19.38
2017-07-28T01:26:22.402Z,19.40
2017-07-28T01:28:50.041Z,19.49
2017-07-28T01:31:17.929Z,19.52
2017-07-28T01:33:45.702Z,19.56
2017-07-28T01:36:13.455Z,19.56
2017-07-28T01:38:41.506Z,19.55
2017-07-28T01:41:09.257Z,19.59
2017-07-28T01:43:37.220Z,19.55
2017-07-28T01:46:04.924Z,19.57
2017-07-28T01:48:32.754Z,19.56
2017-07-28T01:51:01.620Z,19.59
2017-07-28T01:53:29.552Z,19.49
2017-07-28T01:55:57.280Z,19.53
2017-07-28T01:58:25.286Z,19.51
2017-07-28T02:00:53.314Z,19.42
2017-07-28T02:03:21.210Z,19.42
2017-07-28T02:05:49.093Z,19.35
2017-07-28T02:08:17.166Z,19.37
2017-07-28T02:10:45.008Z,19.33
2017-07-28T02:13:12.744Z,19.26
2017-07-28T02:15:40.765Z,19.22
2017-07-28T02:18:08.610Z,19.21
2017-07-28T02:20:36.352Z,19.19
2017-07-28T02:23:04.365Z,19.19
2017-07-28T02:25:32.084Z,19.12
2017-07-28T02:27:59.910Z,19.11
2017-07-28T02:30:27.868Z,19.06
2017-07-28T02:32:55.835Z,19.13
2017-07-28T02:35:23.552Z,19.21
2017-07-28T02:37:51.419Z,19.26
2017-07-28T02:40:19.282Z,19.18
2017-07-28T02:42:47.096Z,19.19
2017-07-28T02:45:15.065Z,19.19
2017-07-28T02:47:42.963Z,19.17
2017-07-28T02:50:10.903Z,19.14
2017-07-28T02:52:38.944Z,19.20
2017-07-28T02:55:06.888Z,19.25
2017-07-28T02:57:34.830Z,19.29
2017-07-28T03:00:02.782Z,19.33
2017-07-28T03:02:30.614Z,19.42
2017-07-28T03:04:58.512Z,19.40
2017-07-28T03:07:26.442Z,19.47
2017-07-28T03:09:54.388Z,19.43
2017-07-28T03:12:22.141Z,19.46
2017-07-28T03:14:50.172Z,19.36
2017-07-28T03:17:17.913Z,19.35
2017-07-28T03:19:45.921Z,19.37
2017-07-28T03:22:13.949Z,19.37
2017-07-28T03:24:41.644Z,19.32
2017-07-28T03:27:09.316Z,19.36
2017-07-28T03:29:37.025Z,19.35
2017-07-28T03:32:05.056Z,19.35
2017-07-28T03:34:32.682Z,19.35
2017-07-28T03:37:00.551Z,19.33
2017-07-28T03:39:28.253Z,19.34
2017-07-28T03:41:55.902Z,19.31
2017-07-28T03:44:23.928Z,19.32
2017-07-28T03:46:51.636Z,19.42
2017-07-28T03:49:19.361Z,19.43
2017-07-28T03:51:47.328Z,19.40
2017-07-28T03:54:15.239Z,19.37
2017-07-28T03:56:43.087Z,19.36
2017-07-28T03:59:10.966Z,19.32
2017-07-28T04:01:39.044Z,19.41
2017-07-28T04:04:06.812Z,19.40
2017-07-28T04:06:34.562Z,19.44
2017-07-28T04:09:02.439Z,19.48
2017-07-28T04:11:30.165Z,19.49
2017-07-28T04:13:58.228Z,19.55
2017-07-28T04:16:26.062Z,19.56
2017-07-28T04:18:53.684Z,19.49
2017-07-28T04:21:21.407Z,19.54
2017-07-28T04:23:49.298Z,19.53
2017-07-28T04:26:17.305Z,19.59
2017-07-28T04:28:45.376Z,19.60
2017-07-28T04:31:12.985Z,19.74
2017-07-28T04:33:40.601Z,19.82
2017-07-28T04:36:08.454Z,19.91
2017-07-28T04:38:36.422Z,19.91
2017-07-28T04:41:04.021Z,19.96
2017-07-28T04:43:31.678Z,19.97
2017-07-28T04:45:59.319Z,19.95
2017-07-28T04:48:26.943Z,19.96
2017-07-28T04:50:54.654Z,20.00
2017-07-28T04:53:22.263Z,20.10
2017-07-28T04:55:49.869Z,20.12
2017-07-28T04:58:17.553Z,20.20
2017-07-28T05:00:45.310Z,20.20
2017-07-28T05:03:12.968Z,20.27
2017-07-28T05:05:40.629Z,20.27
2017-07-28T05:08:08.253Z,20.25
2017-07-28T05:10:35.880Z,20.32
2017-07-28T05:13:03.555Z,20.35
2017-07-28T05:15:31.168Z,20.29
2017-07-28T05:17:58.799Z,20.26
2017-07-28T05:20:26.463Z,20.33
2017-07-28T05:22:54.062Z,20.50
2017-07-28T05:25:21.672Z,20.56
2017-07-28T05:27:49.332Z,20.75
2017-07-28T05:30:16.961Z,21.06
2017-07-28T05:32:44.572Z,21.27
2017-07-28T05:35:12.236Z,21.27
2017-07-28T05:37:39.860Z,21.16
2017-07-28T05:40:07.477Z,21.31
2017-07-28T05:42:35.158Z,21.31
2017-07-28T05:45:02.779Z,21.60
2017-07-28T05:47:30.388Z,21.74
2017-07-28T05:49:58.142Z,21.70
2017-07-28T05:52:25.784Z,21.50
2017-07-28T05:54:53.390Z,21.51
2017-07-28T05:57:21.063Z,21.46
2017-07-28T05:59:48.673Z,21.60
2017-07-28T06:02:16.371Z,21.65
2017-07-28T06:04:44.045Z,21.78
2017-07-28T06:07:11.669Z,21.73
2017-07-28T06:09:39.277Z,21.89
2017-07-28T06:12:06.943Z,21.95
2017-07-28T06:14:34.608Z,22.33
2017-07-28T06:17:02.388Z,22.53
2017-07-28T06:19:30.049Z,22.40
2017-07-28T06:21:57.651Z,22.72
2017-07-28T06:24:25.255Z,22.83
2017-07-28T06:26:52.983Z,23.21
2017-07-28T06:29:20.585Z,23.22
2017-07-28T06:31:48.182Z,23.56
2017-07-28T06:34:15.873Z,23.56
2017-07-28T06:36:43.490Z,23.98
2017-07-28T06:39:11.103Z,24.26
2017-07-28T06:41:38.936Z,24.16
2017-07-28T06:44:06.537Z,23.79
2017-07-28T06:46:34.141Z,23.45
2017-07-28T06:49:01.800Z,23.74
2017-07-28T06:51:29.385Z,23.89
2017-07-28T06:53:57.009Z,23.94
2017-07-28T06:56:24.690Z,24.04
2017-07-28T06:58:52.283Z,23.99
2017-07-28T07:01:19.888Z,23.98
2017-07-28T07:03:47.616Z,24.50
2017-07-28T07:06:15.224Z,25.22
2017-07-28T07:08:42.833Z,25.41
2017-07-28T07:11:10.494Z,26.17
2017-07-28T07:13:38.174Z,26.66
2017-07-28T07:16:05.786Z,27.14
2017-07-28T07:18:33.447Z,27.30
2017-07-28T07:21:01.202Z,27.98
2017-07-28T07:23:28.815Z,28.53
2017-07-28T07:25:56.467Z,28.60
2017-07-28T07:28:24.077Z,29.24
2017-07-28T07:30:51.676Z,29.96
2017-07-28T07:33:19.355Z,28.85
2017-07-28T07:35:46.969Z,27.81
2017-07-28T07:38:14.578Z,27.92
2017-07-28T07:40:42.255Z,29.24
2017-07-28T07:43:09.923Z,30.36
2017-07-28T07:45:37.527Z,31.21
2017-07-28T07:48:05.174Z,32.38
2017-07-28T07:50:32.780Z,33.96
2017-07-28T07:53:00.397Z,31.97
2017-07-28T07:55:28.053Z,31.22
2017-07-28T07:57:55.650Z,30.03
2017-07-28T08:00:23.249Z,29.66
2017-07-28T08:02:50.915Z,30.61
2017-07-28T08:05:18.537Z,31.88
2017-07-28T08:07:46.133Z,32.19
2017-07-28T08:10:13.970Z,31.46
2017-07-28T08:12:41.572Z,30.75
2017-07-28T08:15:09.169Z,30.56
2017-07-28T08:17:36.843Z,29.90
2017-07-28T08:20:04.485Z,30.07
2017-07-28T08:22:32.129Z,32.14
2017-07-28T08:24:59.824Z,32.93
2017-07-28T08:27:27.456Z,32.30
2017-07-28T08:29:55.084Z,32.65
2017-07-28T08:32:22.738Z,31.71
2017-07-28T08:34:50.359Z,32.37
2017-07-28T08:37:17.961Z,32.49
2017-07-28T08:39:46.096Z,32.30
2017-07-28T08:42:13.698Z,32.93
2017-07-28T08:44:41.298Z,32.12
2017-07-28T08:47:08.981Z,33.06
2017-07-28T08:49:36.595Z,32.84
2017-07-28T08:52:04.211Z,32.72
2017-07-28T08:54:31.908Z,31.97
2017-07-28T08:56:59.538Z,31.66
2017-07-28T08:59:27.153Z,32.26
2017-07-28T09:01:54.827Z,33.23
2017-07-28T09:04:22.421Z,33.99
2017-07-28T09:06:50.070Z,33.65
2017-07-28T09:09:17.756Z,33.08
2017-07-28T09:11:45.363Z,33.13
2017-07-28T09:14:12.974Z,33.48
2017-07-28T09:16:40.650Z,33.16
2017-07-28T09:19:08.274Z,33.73
2017-07-28T09:21:35.926Z,33.57
2017-07-28T09:24:03.622Z,34.43
2017-07-28T09:26:31.221Z,35.09
2017-07-28T09:28:58.840Z,34.98
2017-07-28T09:31:26.536Z,34.65
2017-07-28T09:33:54.157Z,33.03
2017-07-28T09:36:21.764Z,33.80
2017-07-28T09:38:49.507Z,34.61
2017-07-28T09:41:17.141Z,35.19
2017-07-28T09:43:44.760Z,34.96
2017-07-28T09:46:12.478Z,34.75
2017-07-28T09:48:40.077Z,34.95
2017-07-28T09:51:07.699Z,35.70
2017-07-28T09:53:35.375Z,35.52
2017-07-28T09:56:03.005Z,35.00
2017-07-28T09:58:30.626Z,35.07
2017-07-28T10:00:58.319Z,35.23
2017-07-28T10:03:25.936Z,35.85
2017-07-28T10:05:53.560Z,35.70
2017-07-28T10:08:21.308Z,34.39
2017-07-28T10:10:48.917Z,33.86
2017-07-28T10:13:16.516Z,34.07
2017-07-28T10:15:44.190Z,33.99
2017-07-28T10:18:11.817Z,34.76
2017-07-28T10:20:39.448Z,35.13
2017-07-28T10:23:07.261Z,35.37
2017-07-28T10:25:34.887Z,35.03
2017-07-28T10:28:02.521Z,34.71
2017-07-28T10:30:30.197Z,34.27
2017-07-28T10:32:57.814Z,34.31
2017-07-28T10:35:25.425Z,34.71
2017-07-28T10:37:53.113Z,34.04
2017-07-28T10:40:20.720Z,33.54
2017-07-28T10:42:48.374Z,32.81
2017-07-28T10:45:16.042Z,32.82
2017-07-28T10:47:43.779Z,33.63
2017-07-28T10:50:11.390Z,32.68
2017-07-28T10:52:39.066Z,33.94
2017-07-28T10:55:06.692Z,34.18
2017-07-28T10:57:34.309Z,33.17
2017-07-28T11:00:01.990Z,32.63
2017-07-28T11:02:29.689Z,32.77
2017-07-28T11:04:57.327Z,33.40
2017-07-28T11:07:25.021Z,33.17
2017-07-28T11:09:52.695Z,32.36
2017-07-28T11:12:20.333Z,33.65
2017-07-28T11:14:48.167Z,33.12
2017-07-28T11:17:15.908Z,33.65
2017-07-28T11:19:43.542Z,33.92
2017-07-28T11:22:12.932Z,33.46
2017-07-28T11:24:40.812Z,31.45
2017-07-28T11:27:08.479Z,31.90
2017-07-28T11:29:36.162Z,33.14
2017-07-28T11:32:03.957Z,33.84
2017-07-28T11:34:31.710Z,33.58
2017-07-28T11:36:59.383Z,32.83
2017-07-28T11:39:27.116Z,32.15
2017-07-28T11:41:54.892Z,32.32
2017-07-28T11:44:22.640Z,32.76
2017-07-28T11:46:54.666Z,32.89
2017-07-28T11:49:22.339Z,32.92
2017-07-28T11:51:51.131Z,32.25
2017-07-28T11:54:19.006Z,32.84
2017-07-28T11:56:46.650Z,32.58
2017-07-28T11:59:14.453Z,31.84
2017-07-28T12:01:42.194Z,30.86
2017-07-28T12:04:09.884Z,30.37
2017-07-28T12:06:37.563Z,30.26
2017-07-28T12:09:06.042Z,29.79
2017-07-28T12:11:33.927Z,30.28
2017-07-28T12:14:02.670Z,30.08
2017-07-28T12:16:30.370Z,30.61
2017-07-28T12:18:57.979Z,30.32
2017-07-28T12:21:26.071Z,30.05
2017-07-28T12:23:54.041Z,30.02
2017-07-28T12:26:21.869Z,29.99
2017-07-28T12:28:49.989Z,30.34
2017-07-28T12:31:17.847Z,30.24
2017-07-28T12:33:45.441Z,29.15
2017-07-28T12:36:13.171Z,29.63
2017-07-28T12:38:40.869Z,30.25
2017-07-28T12:41:08.470Z,31.42
2017-07-28T12:43:36.176Z,32.26
2017-07-28T12:46:03.875Z,31.74
2017-07-28T12:48:31.486Z,31.16
2017-07-28T12:50:59.091Z,31.15
2017-07-28T12:53:26.759Z,31.20
2017-07-28T12:55:54.369Z,30.65
2017-07-28T12:58:21.980Z,30.17
2017-07-28T13:00:49.646Z,29.57
2017-07-28T13:03:17.245Z,29.38
2017-07-28T13:05:44.862Z,29.37
2017-07-28T13:08:13.347Z,29.54
2017-07-28T13:10:41.211Z,29.62
2017-07-28T13:13:08.850Z,29.38
2017-07-28T13:15:36.613Z,29.20
2017-07-28T13:18:04.230Z,28.95
2017-07-28T13:20:31.841Z,28.76
2017-07-28T13:22:59.540Z,28.99
2017-07-28T13:25:27.169Z,29.00
2017-07-28T13:27:54.783Z,28.90
2017-07-28T13:30:22.449Z,28.75
2017-07-28T13:32:50.046Z,28.87
2017-07-28T13:35:17.677Z,29.13
2017-07-28T13:37:45.382Z,29.15
2017-07-28T13:40:12.995Z,29.21
2017-07-28T13:42:40.619Z,29.09
2017-07-28T13:45:08.305Z,29.04
2017-07-28T13:47:35.911Z,29.21
2017-07-28T13:50:03.528Z,29.06
2017-07-28T13:52:31.641Z,28.93
2017-07-28T13:54:59.252Z,28.82
2017-07-28T13:57:26.854Z,28.53
2017-07-28T13:59:54.548Z,28.27
2017-07-28T14:02:22.164Z,28.28
2017-07-28T14:04:49.797Z,28.47
2017-07-28T14:07:17.494Z,28.70
2017-07-28T14:09:45.119Z,28.98
2017-07-28T14:12:12.727Z,29.18
2017-07-28T14:14:40.517Z,29.30
2017-07-28T14:17:08.127Z,29.47
2017-07-28T14:19:35.753Z,29.51
2017-07-28T14:22:03.600Z,29.49
2017-07-28T14:24:31.345Z,29.55
2017-07-28T14:26:58.969Z,29.69
2017-07-28T14:29:26.656Z,29.60
2017-07-28T14:31:54.674Z,29.68
2017-07-28T14:34:22.325Z,29.43
2017-07-28T14:36:50.002Z,29.49
2017-07-28T14:39:17.613Z,29.19
2017-07-28T14:41:45.237Z,29.22
2017-07-28T14:44:12.901Z,29.19
2017-07-28T14:46:40.649Z,29.10
2017-07-28T14:49:08.281Z,29.01
2017-07-28T14:51:35.967Z,29.08
2017-07-28T14:54:03.588Z,29.09
2017-07-28T14:56:31.229Z,29.15
2017-07-28T14:58:58.888Z,29.29
2017-07-28T15:01:26.532Z,29.15
2017-07-28T15:03:54.146Z,29.14
2017-07-28T15:06:21.820Z,28.94
2017-07-28T15:08:49.446Z,28.63
2017-07-28T15:11:17.063Z,28.70
2017-07-28T15:13:44.778Z,28.67
2017-07-28T15:16:12.482Z,28.65
2017-07-28T15:18:40.086Z,28.57
2017-07-28T15:21:07.775Z,28.54
2017-07-28T15:23:35.438Z,28.34
2017-07-28T15:26:03.357Z,28.25
2017-07-28T15:28:31.103Z,28.16
2017-07-28T15:30:58.706Z,27.97
2017-07-28T15:33:26.336Z,27.78
2017-07-28T15:35:53.995Z,27.83
2017-07-28T15:38:21.610Z,27.93
2017-07-28T15:40:49.215Z,27.95
2017-07-28T15:43:16.892Z,27.91
2017-07-28T15:45:44.518Z,27.79
2017-07-28T15:48:12.177Z,27.75
2017-07-28T15:50:39.842Z,27.72
2017-07-28T15:53:07.519Z,27.68
2017-07-28T15:55:35.191Z,27.61
2017-07-28T15:58:03.052Z,27.54
2017-07-28T16:00:31.875Z,27.44
2017-07-28T16:03:00.688Z,27.37
2017-07-28T16:05:29.533Z,27.39
2017-07-28T16:07:57.673Z,27.37
2017-07-28T16:10:26.076Z,27.28
2017-07-28T16:12:54.087Z,27.26
2017-07-28T16:15:22.998Z,27.25
2017-07-28T16:17:53.449Z,27.18
2017-07-28T16:20:23.558Z,27.04
2017-07-28T16:22:51.212Z,26.91
2017-07-28T16:25:18.828Z,26.92
2017-07-28T16:27:46.496Z,26.75
2017-07-28T16:30:14.096Z,26.73
2017-07-28T16:32:41.703Z,26.70
2017-07-28T16:35:09.466Z,26.58
2017-07-28T16:37:37.094Z,26.49
2017-07-28T16:40:04.709Z,26.45
2017-07-28T16:42:32.392Z,26.44
2017-07-28T16:45:00.002Z,26.33
2017-07-28T16:47:27.593Z,26.26
2017-07-28T16:49:55.272Z,26.21
2017-07-28T16:52:22.910Z,26.13
2017-07-28T16:54:50.573Z,26.02
2017-07-28T16:57:18.263Z,25.91
2017-07-28T16:59:45.888Z,25.85
2017-07-28T17:02:14.246Z,25.75
2017-07-28T17:04:41.929Z,25.65
2017-07-28T17:07:09.541Z,25.51
2017-07-28T17:09:37.170Z,25.43
2017-07-28T17:12:04.846Z,25.33
2017-07-28T17:14:32.482Z,25.15
2017-07-28T17:17:00.126Z,25.06
2017-07-28T17:19:27.847Z,24.91
2017-07-28T17:21:55.468Z,24.73
2017-07-28T17:24:23.157Z,24.63
2017-07-28T17:26:50.818Z,24.42
2017-07-28T17:29:18.439Z,24.32
2017-07-28T17:31:46.075Z,24.10
2017-07-28T17:34:13.782Z,23.93
2017-07-28T17:36:41.457Z,23.76
2017-07-28T17:39:09.113Z,23.63
2017-07-28T17:41:36.811Z,23.46
2017-07-28T17:44:04.438Z,23.28
2017-07-28T17:46:32.073Z,23.13
2017-07-28T17:48:59.796Z,23.00
2017-07-28T17:51:27.410Z,22.83
2017-07-28T17:53:55.037Z,22.67
2017-07-28T17:56:22.725Z,22.52
2017-07-28T17:58:50.362Z,22.32
2017-07-28T18:01:17.986Z,22.14
2017-07-28T18:03:45.675Z,22.01
2017-07-28T18:06:13.315Z,21.87
2017-07-28T18:08:40.947Z,21.81
2017-07-28T18:11:08.663Z,21.74
2017-07-28T18:13:36.268Z,21.67
2017-07-28T18:16:03.911Z,21.49
2017-07-28T18:18:31.577Z,21.46
2017-07-28T18:20:59.260Z,21.39
2017-07-28T18:23:26.862Z,21.33
2017-07-28T18:25:54.546Z,21.21
2017-07-28T18:28:22.185Z,21.10
2017-07-28T18:30:49.934Z,21.04
2017-07-28T18:33:17.924Z,20.96
2017-07-28T18:35:45.540Z,20.90
2017-07-28T18:38:13.158Z,20.86
2017-07-28T18:40:40.821Z,20.80
2017-07-28T18:43:08.447Z,20.63
2017-07-28T18:45:36.077Z,20.56
2017-07-28T18:48:03.894Z,20.44
2017-07-28T18:50:31.516Z,20.43
2017-07-28T18:52:59.132Z,20.42
2017-07-28T18:55:26.823Z,20.30
2017-07-28T18:57:54.427Z,20.23
2017-07-28T19:00:22.071Z,20.13
2017-07-28T19:02:49.770Z,20.03
2017-07-28T19:05:17.409Z,19.92
2017-07-28T19:07:45.078Z,19.77
2017-07-28T19:10:12.760Z,19.83
2017-07-28T19:12:40.392Z,19.79
2017-07-28T19:15:08.006Z,19.70
2017-07-28T19:17:35.692Z,19.73
2017-07-28T19:20:03.314Z,19.73
2017-07-28T19:22:30.985Z,19.76
2017-07-28T19:24:58.654Z,19.83
2017-07-28T19:27:26.271Z,19.80
2017-07-28T19:29:53.881Z,19.85
2017-07-28T19:32:21.555Z,19.90
2017-07-28T19:34:49.182Z,19.89
2017-07-28T19:37:16.806Z,19.88
2017-07-28T19:39:44.513Z,19.81
2017-07-28T19:42:12.126Z,19.82
2017-07-28T19:44:39.767Z,19.76
2017-07-28T19:47:07.439Z,19.66
2017-07-28T19:49:35.080Z,19.53
2017-07-28T19:52:02.719Z,19.51
2017-07-28T19:54:30.411Z,19.53
2017-07-28T19:56:58.157Z,19.49
2017-07-28T19:59:25.777Z,19.40
2017-07-28T20:01:53.686Z,19.39
2017-07-28T20:04:21.307Z,19.37
2017-07-28T20:06:48.921Z,19.40
2017-07-28T20:09:16.821Z,19.40
2017-07-28T20:11:44.760Z,19.33
2017-07-28T20:14:12.377Z,19.26
2017-07-28T20:16:40.055Z,19.31
2017-07-28T20:19:07.741Z,19.27
2017-07-28T20:21:35.801Z,19.37
2017-07-28T20:24:03.532Z,19.33
2017-07-28T20:26:31.152Z,19.20
2017-07-28T20:28:58.769Z,19.05
2017-07-28T20:31:26.465Z,18.99
2017-07-28T20:33:54.207Z,18.91
2017-07-28T20:36:21.813Z,18.97
2017-07-28T20:38:49.475Z,18.95
2017-07-28T20:41:17.121Z,18.93
2017-07-28T20:43:44.740Z,18.85
2017-07-28T20:46:12.388Z,18.82
2017-07-28T20:48:40.259Z,18.86
2017-07-28T20:51:07.959Z,18.82
2017-07-28T20:53:35.995Z,18.77
2017-07-28T20:56:03.713Z,18.81
2017-07-28T20:58:31.402Z,18.75
2017-07-28T21:00:59.217Z,18.64
2017-07-28T21:03:26.861Z,18.61
2017-07-28T21:05:54.534Z,18.54
2017-07-28T21:08:22.203Z,18.58
2017-07-28T21:10:49.864Z,18.60
2017-07-28T21:13:17.704Z,18.62
2017-07-28T21:15:45.445Z,18.58
2017-07-28T21:18:13.413Z,18.48
2017-07-28T21:20:41.333Z,18.51
2017-07-28T21:23:09.356Z,18.53
2017-07-28T21:25:37.017Z,18.43
2017-07-28T21:28:04.626Z,18.33
2017-07-28T21:30:32.300Z,18.26
2017-07-28T21:32:59.902Z,18.14
2017-07-28T21:35:27.513Z,18.08
2017-07-28T21:37:55.169Z,18.04
2017-07-28T21:40:22.801Z,18.06
2017-07-28T21:42:50.412Z,18.05
2017-07-28T21:45:18.082Z,18.10
2017-07-28T21:47:45.720Z,18.01
2017-07-28T21:50:13.344Z,17.97
2017-07-28T21:52:40.987Z,17.99
2017-07-28T21:55:08.600Z,17.96
2017-07-28T21:57:36.216Z,17.90
2017-07-28T22:00:03.870Z,17.85
2017-07-28T22:02:31.496Z,17.79
2017-07-28T22:04:59.137Z,17.76
2017-07-28T22:07:26.821Z,17.71
2017-07-28T22:09:54.428Z,17.81
2017-07-28T22:12:22.037Z,17.73
2017-07-28T22:14:49.728Z,17.81
2017-07-28T22:17:17.369Z,17.87
2017-07-28T22:19:44.978Z,17.84
2017-07-28T22:22:12.652Z,17.86
2017-07-28T22:24:40.290Z,17.97
2017-07-28T22:27:07.947Z,17.95
2017-07-28T22:29:35.666Z,17.95
2017-07-28T22:32:03.389Z,17.87
2017-07-28T22:34:31.115Z,18.04
2017-07-28T22:36:59.063Z,18.08
2017-07-28T22:39:26.898Z,18.22
2017-07-28T22:41:54.641Z,18.29
2017-07-28T22:44:22.295Z,18.42
2017-07-28T22:46:49.906Z,18.50
2017-07-28T22:49:17.521Z,18.55
2017-07-28T22:51:45.167Z,18.63
2017-07-28T22:54:12.769Z,18.68
2017-07-28T22:56:40.370Z,18.82
2017-07-28T22:59:08.121Z,19.01
2017-07-28T23:01:35.727Z,19.20
2017-07-28T23:04:03.347Z,19.36
2017-07-28T23:06:31.011Z,19.52
2017-07-28T23:08:58.632Z,19.66
2017-07-28T23:11:26.256Z,19.72
2017-07-28T23:13:53.936Z,19.82
2017-07-28T23:16:21.556Z,19.85
2017-07-28T23:18:49.168Z,19.93
2017-07-28T23:21:16.838Z,19.96
2017-07-28T23:23:44.438Z,19.99
2017-07-28T23:26:12.037Z,20.04
2017-07-28T23:28:39.743Z,20.01
2017-07-28T23:31:07.352Z,19.99
2017-07-28T23:33:34.964Z,19.90
2017-07-28T23:36:02.623Z,19.86
2017-07-28T23:38:30.214Z,19.80
2017-07-28T23:40:57.858Z,19.87
2017-07-28T23:43:25.517Z,19.87
2017-07-28T23:45:53.156Z,19.89
2017-07-28T23:48:20.788Z,19.86
2017-07-28T23:50:48.449Z,19.66
2017-07-28T23:53:16.058Z,19.43
2017-07-28T23:55:43.692Z,19.24
2017-07-28T23:58:11.412Z,19.07
